createdAt,value
2017-01-16T00:00:15.212Z,1024.53
2017-01-16T00:01:37.248Z,1024.53
2017-01-16T00:02:59.276Z,1024.54
2017-01-16T00:04:21.731Z,1024.54
2017-01-16T00:05:43.005Z,1024.56
2017-01-16T00:07:04.642Z,1024.58
2017-01-16T00:08:27.083Z,1024.54
2017-01-16T00:09:49.121Z,1024.59
2017-01-16T00:11:11.677Z,1024.55
2017-01-16T00:12:32.927Z,1024.51
2017-01-16T00:13:55.377Z,1024.52
2017-01-16T00:15:17.401Z,1024.54
2017-01-16T00:16:39.887Z,1024.5
2017-01-16T00:18:01.137Z,1024.48
2017-01-16T00:19:23.209Z,1024.51
2017-01-16T00:20:45.319Z,1024.55
2017-01-16T00:22:07.408Z,1024.58
2017-01-16T00:23:28.694Z,1024.58
2017-01-16T00:24:51.536Z,1024.55
2017-01-16T00:26:12.775Z,1024.54
2017-01-16T00:27:34.840Z,1024.54
2017-01-16T00:28:57.720Z,1024.53
2017-01-16T00:30:20.166Z,1024.53
2017-01-16T00:31:41.439Z,1024.51
2017-01-16T00:33:03.938Z,1024.55
2017-01-16T00:34:26.490Z,1024.59
2017-01-16T00:35:49.446Z,1024.57
2017-01-16T00:37:11.884Z,1024.54
2017-01-16T00:38:34.100Z,1024.54
2017-01-16T00:39:56.162Z,1024.55
2017-01-16T00:41:17.506Z,1024.52
2017-01-16T00:42:38.756Z,1024.53
2017-01-16T00:44:01.590Z,1024.56
2017-01-16T00:45:24.171Z,1024.49
2017-01-16T00:46:46.632Z,1024.52
2017-01-16T00:48:08.845Z,1024.55
2017-01-16T00:49:30.484Z,1024.5
2017-01-16T00:50:52.996Z,1024.56
2017-01-16T00:52:14.732Z,1024.54
2017-01-16T00:53:36.433Z,1024.53
2017-01-16T00:54:58.071Z,1024.58
2017-01-16T00:56:20.293Z,1024.6
2017-01-16T00:57:41.934Z,1024.57
2017-01-16T00:59:03.566Z,1024.6
2017-01-16T01:00:25.209Z,1024.67
2017-01-16T01:01:46.971Z,1024.69
2017-01-16T01:03:09.019Z,1024.68
2017-01-16T01:04:31.084Z,1024.7
2017-01-16T01:05:53.120Z,1024.72
2017-01-16T01:07:14.764Z,1024.75
2017-01-16T01:08:36.794Z,1024.74
2017-01-16T01:09:58.030Z,1024.76
2017-01-16T01:11:20.940Z,1024.77
2017-01-16T01:12:43.004Z,1024.77
2017-01-16T01:14:05.055Z,1024.81
2017-01-16T01:15:26.704Z,1024.8
2017-01-16T01:16:49.262Z,1024.8
2017-01-16T01:18:12.135Z,1024.81
2017-01-16T01:19:33.779Z,1024.83
2017-01-16T01:20:55.047Z,1024.81
2017-01-16T01:22:16.300Z,1024.75
2017-01-16T01:23:38.448Z,1024.77
2017-01-16T01:25:00.483Z,1024.77
2017-01-16T01:26:22.167Z,1024.82
2017-01-16T01:27:45.005Z,1024.85
2017-01-16T01:29:06.780Z,1024.81
2017-01-16T01:30:28.883Z,1024.86
2017-01-16T01:31:50.524Z,1024.91
2017-01-16T01:33:12.615Z,1024.9
2017-01-16T01:34:34.649Z,1024.92
2017-01-16T01:35:56.710Z,1024.85
2017-01-16T01:37:19.169Z,1024.92
2017-01-16T01:38:41.279Z,1024.85
2017-01-16T01:40:03.323Z,1024.95
2017-01-16T01:41:25.374Z,1024.9
2017-01-16T01:42:47.806Z,1024.93
2017-01-16T01:44:09.975Z,1024.99
2017-01-16T01:45:32.037Z,1024.99
2017-01-16T01:46:54.567Z,1025.01
2017-01-16T01:48:17.034Z,1025.06
2017-01-16T01:49:39.077Z,1025.01
2017-01-16T01:51:01.122Z,1025.04
2017-01-16T01:52:22.804Z,1025.04
2017-01-16T01:53:44.871Z,1025.12
2017-01-16T01:55:07.811Z,1025.13
2017-01-16T01:56:29.856Z,1025.15
2017-01-16T01:57:52.375Z,1025.18
2017-01-16T01:59:14.440Z,1025.18
2017-01-16T02:00:36.080Z,1025.14
2017-01-16T02:01:57.811Z,1025.15
2017-01-16T02:03:19.866Z,1025.14
2017-01-16T02:04:41.514Z,1025.13
2017-01-16T02:06:03.970Z,1025.11
2017-01-16T02:07:26.422Z,1025.1
2017-01-16T02:08:48.502Z,1025.17
2017-01-16T02:10:10.555Z,1025.15
2017-01-16T02:11:32.329Z,1025.15
2017-01-16T02:12:54.372Z,1025.16
2017-01-16T02:14:15.643Z,1025.22
2017-01-16T02:15:37.294Z,1025.21
2017-01-16T02:16:58.995Z,1025.25
2017-01-16T02:18:21.038Z,1025.24
2017-01-16T02:19:42.673Z,1025.25
2017-01-16T02:21:05.097Z,1025.19
2017-01-16T02:22:27.535Z,1025.2
2017-01-16T02:23:49.721Z,1025.29
2017-01-16T02:25:11.445Z,1025.25
2017-01-16T02:26:33.504Z,1025.28
2017-01-16T02:27:56.512Z,1025.37
2017-01-16T02:29:18.605Z,1025.38
2017-01-16T02:30:40.654Z,1025.41
2017-01-16T02:32:02.759Z,1025.39
2017-01-16T02:33:25.592Z,1025.37
2017-01-16T02:34:47.268Z,1025.45
2017-01-16T02:36:09.808Z,1025.43
2017-01-16T02:37:31.888Z,1025.4
2017-01-16T02:38:54.334Z,1025.44
2017-01-16T02:40:16.412Z,1025.42
2017-01-16T02:41:38.675Z,1025.43
2017-01-16T02:43:00.858Z,1025.42
2017-01-16T02:44:23.812Z,1025.42
2017-01-16T02:45:46.644Z,1025.43
2017-01-16T02:47:09.092Z,1025.42
2017-01-16T02:48:31.935Z,1025.42
2017-01-16T02:49:54.002Z,1025.42
2017-01-16T02:51:16.064Z,1025.38
2017-01-16T02:52:38.513Z,1025.4
2017-01-16T02:54:00.552Z,1025.41
2017-01-16T02:55:23.063Z,1025.4
2017-01-16T02:56:45.104Z,1025.44
2017-01-16T02:58:06.879Z,1025.4
2017-01-16T02:59:28.912Z,1025.38
2017-01-16T03:00:51.930Z,1025.41
2017-01-16T03:02:14.368Z,1025.39
2017-01-16T03:03:37.266Z,1025.38
2017-01-16T03:04:59.303Z,1025.37
2017-01-16T03:06:21.333Z,1025.39
2017-01-16T03:07:43.360Z,1025.38
2017-01-16T03:09:05.409Z,1025.39
2017-01-16T03:10:27.022Z,1025.34
2017-01-16T03:11:48.263Z,1025.43
2017-01-16T03:13:10.452Z,1025.4
2017-01-16T03:14:32.996Z,1025.41
2017-01-16T03:15:55.534Z,1025.39
2017-01-16T03:17:18.028Z,1025.35
2017-01-16T03:18:40.154Z,1025.42
2017-01-16T03:20:02.285Z,1025.46
2017-01-16T03:21:24.469Z,1025.44
2017-01-16T03:22:46.094Z,1025.36
2017-01-16T03:24:08.155Z,1025.4
2017-01-16T03:25:30.301Z,1025.41
2017-01-16T03:26:51.555Z,1025.38
2017-01-16T03:28:13.593Z,1025.37
2017-01-16T03:29:35.633Z,1025.37
2017-01-16T03:30:57.791Z,1025.41
2017-01-16T03:32:19.080Z,1025.41
2017-01-16T03:33:41.122Z,1025.41
2017-01-16T03:35:03.593Z,1025.46
2017-01-16T03:36:25.765Z,1025.5
2017-01-16T03:37:47.812Z,1025.47
2017-01-16T03:39:10.226Z,1025.48
2017-01-16T03:40:32.826Z,1025.44
2017-01-16T03:41:54.509Z,1025.47
2017-01-16T03:43:16.139Z,1025.46
2017-01-16T03:44:37.396Z,1025.43
2017-01-16T03:45:59.044Z,1025.44
2017-01-16T03:47:21.504Z,1025.48
2017-01-16T03:48:43.233Z,1025.51
2017-01-16T03:50:05.660Z,1025.46
2017-01-16T03:51:27.719Z,1025.51
2017-01-16T03:52:50.158Z,1025.52
2017-01-16T03:54:11.912Z,1025.52
2017-01-16T03:55:34.332Z,1025.56
2017-01-16T03:56:56.371Z,1025.57
2017-01-16T03:58:18.865Z,1025.61
2017-01-16T03:59:41.313Z,1025.53
2017-01-16T04:01:03.750Z,1025.56
2017-01-16T04:02:26.692Z,1025.64
2017-01-16T04:03:49.144Z,1025.66
2017-01-16T04:05:11.693Z,1025.67
2017-01-16T04:06:33.743Z,1025.69
2017-01-16T04:07:55.925Z,1025.74
2017-01-16T04:09:17.584Z,1025.77
2017-01-16T04:10:40.083Z,1025.75
2017-01-16T04:12:02.650Z,1025.73
2017-01-16T04:13:24.765Z,1025.81
2017-01-16T04:14:47.240Z,1025.78
2017-01-16T04:16:08.903Z,1025.76
2017-01-16T04:17:30.343Z,1025.81
2017-01-16T04:18:51.585Z,1025.81
2017-01-16T04:20:14.023Z,1025.78
2017-01-16T04:21:35.674Z,1025.84
2017-01-16T04:22:56.924Z,1025.88
2017-01-16T04:24:19.474Z,1025.88
2017-01-16T04:25:42.018Z,1025.87
2017-01-16T04:27:04.076Z,1025.87
2017-01-16T04:28:26.123Z,1025.87
2017-01-16T04:29:48.176Z,1025.9
2017-01-16T04:31:10.831Z,1025.9
2017-01-16T04:32:33.266Z,1025.89
2017-01-16T04:33:54.515Z,1025.91
2017-01-16T04:35:16.213Z,1025.88
2017-01-16T04:36:37.448Z,1025.92
2017-01-16T04:37:59.160Z,1025.94
2017-01-16T04:39:21.334Z,1025.93
2017-01-16T04:40:42.974Z,1025.98
2017-01-16T04:42:05.594Z,1025.92
2017-01-16T04:43:27.712Z,1026
2017-01-16T04:44:49.775Z,1025.96
2017-01-16T04:46:12.253Z,1025.97
2017-01-16T04:47:34.315Z,1026
2017-01-16T04:48:56.780Z,1026.04
2017-01-16T04:50:18.071Z,1026.03
2017-01-16T04:51:39.730Z,1026.08
2017-01-16T04:53:02.290Z,1026.07
2017-01-16T04:54:24.831Z,1026.09
2017-01-16T04:55:46.876Z,1026.11
2017-01-16T04:57:08.924Z,1026.06
2017-01-16T04:58:31.421Z,1026.11
2017-01-16T04:59:54.286Z,1026.09
2017-01-16T05:01:16.472Z,1026.19
2017-01-16T05:02:38.514Z,1026.21
2017-01-16T05:04:00.664Z,1026.23
2017-01-16T05:05:21.914Z,1026.22
2017-01-16T05:06:44.086Z,1026.21
2017-01-16T05:08:07.032Z,1026.24
2017-01-16T05:09:29.209Z,1026.29
2017-01-16T05:10:51.447Z,1026.33
2017-01-16T05:12:13.487Z,1026.31
2017-01-16T05:13:35.914Z,1026.37
2017-01-16T05:14:57.562Z,1026.4
2017-01-16T05:16:20.482Z,1026.42
2017-01-16T05:17:42.116Z,1026.46
2017-01-16T05:19:04.167Z,1026.48
2017-01-16T05:20:26.445Z,1026.47
2017-01-16T05:21:47.696Z,1026.49
2017-01-16T05:23:10.147Z,1026.47
2017-01-16T05:24:31.792Z,1026.55
2017-01-16T05:25:53.839Z,1026.51
2017-01-16T05:27:15.968Z,1026.49
2017-01-16T05:28:38.485Z,1026.55
2017-01-16T05:30:00.926Z,1026.51
2017-01-16T05:31:23.766Z,1026.54
2017-01-16T05:32:46.325Z,1026.58
2017-01-16T05:34:08.445Z,1026.61
2017-01-16T05:35:31.314Z,1026.59
2017-01-16T05:36:53.735Z,1026.66
2017-01-16T05:38:16.558Z,1026.6
2017-01-16T05:39:38.720Z,1026.67
2017-01-16T05:41:00.371Z,1026.67
2017-01-16T05:42:23.228Z,1026.7
2017-01-16T05:43:45.841Z,1026.75
2017-01-16T05:45:08.418Z,1026.76
2017-01-16T05:46:31.351Z,1026.75
2017-01-16T05:47:53.917Z,1026.78
2017-01-16T05:49:16.017Z,1026.74
2017-01-16T05:50:37.653Z,1026.77
2017-01-16T05:51:59.710Z,1026.74
2017-01-16T05:53:22.202Z,1026.77
2017-01-16T05:54:44.250Z,1026.76
2017-01-16T05:56:07.184Z,1026.79
2017-01-16T05:57:29.613Z,1026.79
2017-01-16T05:58:52.431Z,1026.76
2017-01-16T06:00:15.258Z,1026.82
2017-01-16T06:01:37.337Z,1026.81
2017-01-16T06:02:59.375Z,1026.8
2017-01-16T06:04:53.377Z,1026.8
2017-01-16T06:06:15.482Z,1026.87
2017-01-16T06:07:37.915Z,1026.9
2017-01-16T06:08:59.604Z,1026.91
2017-01-16T06:10:21.724Z,1026.97
2017-01-16T06:11:44.605Z,1026.97
2017-01-16T06:13:06.266Z,1027.01
2017-01-16T06:14:28.748Z,1026.99
2017-01-16T06:15:51.599Z,1026.94
2017-01-16T06:17:14.077Z,1026.96
2017-01-16T06:18:36.549Z,1026.96
2017-01-16T06:19:58.258Z,1027.01
2017-01-16T06:21:19.524Z,1027.02
2017-01-16T06:22:42.365Z,1027.04
2017-01-16T06:24:04.833Z,1027.02
2017-01-16T06:25:26.896Z,1027.02
2017-01-16T06:26:49.060Z,1027.04
2017-01-16T06:28:11.544Z,1027.06
2017-01-16T06:29:32.795Z,1027.08
2017-01-16T06:30:55.629Z,1027.08
2017-01-16T06:32:17.689Z,1027.06
2017-01-16T06:33:39.343Z,1027.11
2017-01-16T06:35:01.817Z,1027.08
2017-01-16T06:36:24.326Z,1027.2
2017-01-16T06:37:46.412Z,1027.19
2017-01-16T06:39:09.266Z,1027.19
2017-01-16T06:40:31.706Z,1027.19
2017-01-16T06:41:53.340Z,1027.19
2017-01-16T06:43:15.838Z,1027.17
2017-01-16T06:44:37.886Z,1027.17
2017-01-16T06:45:59.948Z,1027.2
2017-01-16T06:47:22.414Z,1027.17
2017-01-16T06:48:45.261Z,1027.22
2017-01-16T06:50:07.796Z,1027.17
2017-01-16T06:51:30.267Z,1027.23
2017-01-16T06:52:52.817Z,1027.17
2017-01-16T06:54:47.168Z,1027.22
2017-01-16T06:56:08.427Z,1027.24
2017-01-16T06:57:31.269Z,1027.21
2017-01-16T06:58:53.323Z,1027.19
2017-01-16T07:00:15.359Z,1027.24
2017-01-16T07:01:37.000Z,1027.24
2017-01-16T07:02:59.047Z,1027.23
2017-01-16T07:04:20.792Z,1027.29
2017-01-16T07:05:42.999Z,1027.27
2017-01-16T07:07:04.657Z,1027.29
2017-01-16T07:08:25.901Z,1027.31
2017-01-16T07:09:48.503Z,1027.28
2017-01-16T07:11:11.057Z,1027.28
2017-01-16T07:12:33.508Z,1027.3
2017-01-16T07:13:55.957Z,1027.32
2017-01-16T07:15:50.308Z,1027.32
2017-01-16T07:17:12.551Z,1027.33
2017-01-16T07:18:35.013Z,1027.4
2017-01-16T07:19:57.639Z,1027.36
2017-01-16T07:21:20.100Z,1027.4
2017-01-16T07:22:44.520Z,1027.41
2017-01-16T07:24:06.648Z,1027.43
2017-01-16T07:25:32.565Z,1027.44
2017-01-16T07:26:55.010Z,1027.45
2017-01-16T07:28:16.705Z,1027.49
2017-01-16T07:29:37.549Z,1027.51
2017-01-16T07:30:59.582Z,1027.5
2017-01-16T07:32:21.624Z,1027.51
2017-01-16T07:33:44.073Z,1027.56
2017-01-16T07:35:06.120Z,1027.56
2017-01-16T07:36:27.400Z,1027.56
2017-01-16T07:37:49.996Z,1027.61
2017-01-16T07:39:12.993Z,1027.66
2017-01-16T07:40:35.145Z,1027.68
2017-01-16T07:41:57.611Z,1027.67
2017-01-16T07:43:19.301Z,1027.7
2017-01-16T07:44:42.179Z,1027.77
2017-01-16T07:46:04.754Z,1027.76
2017-01-16T07:47:26.923Z,1027.75
2017-01-16T07:48:49.375Z,1027.81
2017-01-16T07:50:11.809Z,1027.83
2017-01-16T07:51:34.735Z,1027.84
2017-01-16T07:52:57.180Z,1027.87
2017-01-16T07:54:19.664Z,1027.88
2017-01-16T07:55:41.064Z,1027.89
2017-01-16T07:57:03.504Z,1027.89
2017-01-16T07:58:25.951Z,1027.87
2017-01-16T07:59:48.919Z,1027.94
2017-01-16T08:01:10.987Z,1027.92
2017-01-16T08:02:33.238Z,1027.98
2017-01-16T08:03:55.708Z,1027.97
2017-01-16T08:05:18.441Z,1027.99
2017-01-16T08:06:40.981Z,1027.99
2017-01-16T08:08:03.026Z,1027.99
2017-01-16T08:09:25.593Z,1028.02
2017-01-16T08:10:47.632Z,1028.03
2017-01-16T08:12:09.690Z,1028.06
2017-01-16T08:13:32.174Z,1028.08
2017-01-16T08:14:54.220Z,1028.06
2017-01-16T08:16:16.311Z,1028.08
2017-01-16T08:17:38.369Z,1028.11
2017-01-16T08:19:01.211Z,1028.07
2017-01-16T08:20:24.071Z,1028.11
2017-01-16T08:21:45.742Z,1028.08
2017-01-16T08:23:08.650Z,1028.17
2017-01-16T08:24:30.705Z,1028.17
2017-01-16T08:25:53.202Z,1028.17
2017-01-16T08:27:15.274Z,1028.27
2017-01-16T08:28:37.698Z,1028.28
2017-01-16T08:30:00.216Z,1028.29
2017-01-16T08:31:22.276Z,1028.36
2017-01-16T08:32:43.990Z,1028.35
2017-01-16T08:34:06.891Z,1028.32
2017-01-16T08:35:29.739Z,1028.35
2017-01-16T08:36:51.396Z,1028.35
2017-01-16T08:38:13.838Z,1028.36
2017-01-16T08:39:36.410Z,1028.45
2017-01-16T08:40:58.991Z,1028.43
2017-01-16T08:42:21.849Z,1028.5
2017-01-16T08:43:43.504Z,1028.53
2017-01-16T08:45:06.355Z,1028.57
2017-01-16T08:46:28.529Z,1028.57
2017-01-16T08:47:50.616Z,1028.6
2017-01-16T08:49:12.656Z,1028.6
2017-01-16T08:50:34.789Z,1028.64
2017-01-16T08:51:56.875Z,1028.57
2017-01-16T08:53:18.983Z,1028.6
2017-01-16T08:54:41.033Z,1028.62
2017-01-16T08:56:03.860Z,1028.63
2017-01-16T08:57:25.910Z,1028.64
2017-01-16T08:58:48.457Z,1028.64
2017-01-16T09:00:10.897Z,1028.65
2017-01-16T09:01:33.423Z,1028.67
2017-01-16T09:02:55.541Z,1028.71
2017-01-16T09:04:17.198Z,1028.69
2017-01-16T09:05:39.252Z,1028.74
2017-01-16T09:07:02.120Z,1028.82
2017-01-16T09:08:24.216Z,1028.81
2017-01-16T09:09:46.292Z,1028.83
2017-01-16T09:11:08.761Z,1028.85
2017-01-16T09:12:31.866Z,1028.88
2017-01-16T09:13:53.156Z,1028.88
2017-01-16T09:15:14.805Z,1028.91
2017-01-16T09:16:37.241Z,1028.87
2017-01-16T09:17:58.906Z,1028.89
2017-01-16T09:19:21.412Z,1028.9
2017-01-16T09:20:43.118Z,1028.94
2017-01-16T09:22:05.161Z,1028.91
2017-01-16T09:23:27.203Z,1028.94
2017-01-16T09:24:49.233Z,1028.94
2017-01-16T09:26:11.703Z,1028.97
2017-01-16T09:27:34.243Z,1028.96
2017-01-16T09:28:55.887Z,1028.95
2017-01-16T09:30:18.723Z,1028.94
2017-01-16T09:31:40.868Z,1028.95
2017-01-16T09:33:03.692Z,1028.91
2017-01-16T09:34:26.160Z,1028.94
2017-01-16T09:35:48.599Z,1028.94
2017-01-16T09:37:10.664Z,1028.95
2017-01-16T09:38:33.169Z,1029
2017-01-16T09:39:55.617Z,1029.01
2017-01-16T09:41:17.666Z,1029.05
2017-01-16T09:42:39.713Z,1029.06
2017-01-16T09:44:02.172Z,1029.05
2017-01-16T09:45:24.674Z,1029.08
2017-01-16T09:46:47.309Z,1029.09
2017-01-16T09:48:09.775Z,1029.06
2017-01-16T09:49:32.278Z,1029.11
2017-01-16T09:50:54.725Z,1029.08
2017-01-16T09:52:16.786Z,1029.14
2017-01-16T09:53:39.613Z,1029.12
2017-01-16T09:55:02.060Z,1029.22
2017-01-16T09:56:24.106Z,1029.16
2017-01-16T09:57:46.223Z,1029.19
2017-01-16T09:59:08.675Z,1029.18
2017-01-16T10:00:31.683Z,1029.16
2017-01-16T10:01:52.944Z,1029.19
2017-01-16T10:03:15.364Z,1029.19
2017-01-16T10:04:37.396Z,1029.17
2017-01-16T10:05:59.832Z,1029.13
2017-01-16T10:07:22.766Z,1029.12
2017-01-16T10:08:44.576Z,1029.12
2017-01-16T10:10:07.133Z,1029.1
2017-01-16T10:11:29.316Z,1029.11
2017-01-16T10:12:51.759Z,1029.11
2017-01-16T10:14:14.225Z,1029.14
2017-01-16T10:15:36.547Z,1029.12
2017-01-16T10:16:58.678Z,1029.15
2017-01-16T10:18:20.736Z,1029.07
2017-01-16T10:19:42.805Z,1029.1
2017-01-16T10:21:04.499Z,1029.11
2017-01-16T10:22:26.555Z,1029.08
2017-01-16T10:23:48.224Z,1029.12
2017-01-16T10:25:09.464Z,1029.12
2017-01-16T10:26:30.765Z,1029.14
2017-01-16T10:27:52.428Z,1029.1
2017-01-16T10:29:15.247Z,1029.1
2017-01-16T10:30:37.346Z,1029.16
2017-01-16T10:31:59.527Z,1029.17
2017-01-16T10:33:22.406Z,1029.21
2017-01-16T10:34:44.085Z,1029.18
2017-01-16T10:36:05.316Z,1029.18
2017-01-16T10:37:27.756Z,1029.2
2017-01-16T10:38:50.196Z,1029.2
2017-01-16T10:40:12.240Z,1029.2
2017-01-16T10:41:33.961Z,1029.21
2017-01-16T10:42:56.223Z,1029.23
2017-01-16T10:44:18.818Z,1029.27
2017-01-16T10:45:41.263Z,1029.24
2017-01-16T10:47:03.328Z,1029.24
2017-01-16T10:48:26.174Z,1029.2
2017-01-16T10:49:47.808Z,1029.24
2017-01-16T10:51:09.057Z,1029.24
2017-01-16T10:52:31.116Z,1029.23
2017-01-16T10:53:53.668Z,1029.22
2017-01-16T10:55:16.519Z,1029.18
2017-01-16T10:56:38.169Z,1029.23
2017-01-16T10:58:00.677Z,1029.23
2017-01-16T10:59:22.869Z,1029.24
2017-01-16T11:00:44.949Z,1029.17
2017-01-16T11:02:07.489Z,1029.21
2017-01-16T11:03:30.436Z,1029.21
2017-01-16T11:05:25.195Z,1029.22
2017-01-16T11:06:47.690Z,1029.25
2017-01-16T11:08:10.159Z,1029.29
2017-01-16T11:09:32.202Z,1029.2
2017-01-16T11:10:55.107Z,1029.3
2017-01-16T11:12:17.555Z,1029.28
2017-01-16T11:13:40.478Z,1029.28
2017-01-16T11:15:03.312Z,1029.28
2017-01-16T11:16:25.740Z,1029.29
2017-01-16T11:17:48.706Z,1029.24
2017-01-16T11:19:10.367Z,1029.23
2017-01-16T11:20:32.435Z,1029.22
2017-01-16T11:21:54.479Z,1029.26
2017-01-16T11:23:16.107Z,1029.21
2017-01-16T11:24:37.765Z,1029.22
2017-01-16T11:26:00.247Z,1029.2
2017-01-16T11:27:22.685Z,1029.23
2017-01-16T11:28:45.595Z,1029.19
2017-01-16T11:30:07.253Z,1029.21
2017-01-16T11:31:29.688Z,1029.27
2017-01-16T11:32:52.544Z,1029.25
2017-01-16T11:34:15.396Z,1029.25
2017-01-16T11:35:38.307Z,1029.28
2017-01-16T11:37:00.804Z,1029.29
2017-01-16T11:38:23.500Z,1029.32
2017-01-16T11:39:45.944Z,1029.3
2017-01-16T11:41:08.578Z,1029.28
2017-01-16T11:42:30.700Z,1029.28
2017-01-16T11:43:53.135Z,1029.3
2017-01-16T11:45:15.985Z,1029.25
2017-01-16T11:46:38.492Z,1029.3
2017-01-16T11:48:00.925Z,1029.3
2017-01-16T11:49:23.398Z,1029.28
2017-01-16T11:50:45.495Z,1029.35
2017-01-16T11:52:07.563Z,1029.26
2017-01-16T11:53:29.224Z,1029.25
2017-01-16T11:54:52.085Z,1029.27
2017-01-16T11:56:13.366Z,1029.26
2017-01-16T11:57:35.804Z,1029.26
2017-01-16T11:58:58.693Z,1029.24
2017-01-16T12:00:21.275Z,1029.21
2017-01-16T12:01:42.531Z,1029.26
2017-01-16T12:03:03.784Z,1029.3
2017-01-16T12:04:25.901Z,1029.35
2017-01-16T12:05:47.558Z,1029.32
2017-01-16T12:07:09.364Z,1029.34
2017-01-16T12:08:31.022Z,1029.33
2017-01-16T12:09:53.560Z,1029.34
2017-01-16T12:11:14.819Z,1029.4
2017-01-16T12:12:36.612Z,1029.38
2017-01-16T12:13:58.703Z,1029.41
2017-01-16T12:15:20.806Z,1029.39
2017-01-16T12:16:42.461Z,1029.43
2017-01-16T12:18:04.977Z,1029.44
2017-01-16T12:19:26.637Z,1029.37
2017-01-16T12:20:49.172Z,1029.37
2017-01-16T12:22:11.222Z,1029.35
2017-01-16T12:23:34.070Z,1029.39
2017-01-16T12:24:55.723Z,1029.37
2017-01-16T12:26:17.832Z,1029.41
2017-01-16T12:27:39.087Z,1029.42
2017-01-16T12:29:01.180Z,1029.41
2017-01-16T12:30:23.697Z,1029.44
2017-01-16T12:31:45.858Z,1029.44
2017-01-16T12:33:07.920Z,1029.41
2017-01-16T12:34:29.970Z,1029.44
2017-01-16T12:35:51.723Z,1029.41
2017-01-16T12:37:13.788Z,1029.38
2017-01-16T12:38:35.161Z,1029.41
2017-01-16T12:39:57.603Z,1029.42
2017-01-16T12:41:19.739Z,1029.43
2017-01-16T12:42:42.688Z,1029.44
2017-01-16T12:44:05.114Z,1029.45
2017-01-16T12:45:27.556Z,1029.51
2017-01-16T12:46:50.099Z,1029.5
2017-01-16T12:48:12.563Z,1029.47
2017-01-16T12:49:34.198Z,1029.47
2017-01-16T12:50:55.866Z,1029.45
2017-01-16T12:52:17.939Z,1029.48
2017-01-16T12:53:39.987Z,1029.47
2017-01-16T12:55:03.098Z,1029.46
2017-01-16T12:56:26.026Z,1029.43
2017-01-16T12:57:48.637Z,1029.44
2017-01-16T12:59:11.236Z,1029.46
2017-01-16T13:00:34.198Z,1029.41
2017-01-16T13:01:56.687Z,1029.5
2017-01-16T13:03:18.758Z,1029.51
2017-01-16T13:04:40.854Z,1029.52
2017-01-16T13:06:02.908Z,1029.54
2017-01-16T13:07:25.368Z,1029.55
2017-01-16T13:08:47.409Z,1029.56
2017-01-16T13:10:09.856Z,1029.57
2017-01-16T13:11:32.424Z,1029.58
2017-01-16T13:12:54.881Z,1029.61
2017-01-16T13:14:16.149Z,1029.68
2017-01-16T13:15:38.585Z,1029.65
2017-01-16T13:17:01.431Z,1029.68
2017-01-16T13:18:23.096Z,1029.76
2017-01-16T13:19:45.550Z,1029.71
2017-01-16T13:21:07.607Z,1029.69
2017-01-16T13:22:30.066Z,1029.73
2017-01-16T13:23:52.668Z,1029.71
2017-01-16T13:25:14.327Z,1029.68
2017-01-16T13:26:36.527Z,1029.73
2017-01-16T13:27:59.498Z,1029.75
2017-01-16T13:29:21.198Z,1029.74
2017-01-16T13:30:43.258Z,1029.77
2017-01-16T13:32:05.706Z,1029.77
2017-01-16T13:33:28.209Z,1029.72
2017-01-16T13:34:50.273Z,1029.75
2017-01-16T13:36:12.817Z,1029.74
2017-01-16T13:37:35.284Z,1029.71
2017-01-16T13:38:57.486Z,1029.67
2017-01-16T13:40:20.060Z,1029.74
2017-01-16T13:41:42.111Z,1029.68
2017-01-16T13:43:04.610Z,1029.74
2017-01-16T13:44:27.481Z,1029.78
2017-01-16T13:45:50.391Z,1029.78
2017-01-16T13:47:11.630Z,1029.81
2017-01-16T13:48:33.681Z,1029.85
2017-01-16T13:49:56.140Z,1029.86
2017-01-16T13:51:18.201Z,1029.92
2017-01-16T13:52:39.853Z,1029.87
2017-01-16T13:54:02.367Z,1029.92
2017-01-16T13:55:24.812Z,1029.95
2017-01-16T13:56:46.492Z,1029.95
2017-01-16T13:58:08.664Z,1030
2017-01-16T13:59:30.713Z,1029.96
2017-01-16T14:00:51.962Z,1030
2017-01-16T14:02:14.012Z,1029.98
2017-01-16T14:03:36.745Z,1029.98
2017-01-16T14:04:59.308Z,1030.05
2017-01-16T14:06:22.168Z,1030
2017-01-16T14:07:44.224Z,1030.05
2017-01-16T14:09:07.075Z,1030.08
2017-01-16T14:10:29.127Z,1030.07
2017-01-16T14:11:51.608Z,1030.11
2017-01-16T14:13:13.765Z,1030.12
2017-01-16T14:14:36.605Z,1030.17
2017-01-16T14:15:59.176Z,1030.15
2017-01-16T14:17:21.234Z,1030.17
2017-01-16T14:18:43.399Z,1030.13
2017-01-16T14:20:05.985Z,1030.17
2017-01-16T14:21:28.837Z,1030.12
2017-01-16T14:22:51.283Z,1030.06
2017-01-16T14:24:13.027Z,1030.11
2017-01-16T14:25:36.007Z,1030.18
2017-01-16T14:26:57.675Z,1030.19
2017-01-16T14:28:20.115Z,1030.17
2017-01-16T14:29:43.056Z,1030.17
2017-01-16T14:31:05.186Z,1030.21
2017-01-16T14:32:28.256Z,1030.22
2017-01-16T14:33:51.169Z,1030.21
2017-01-16T14:35:13.626Z,1030.28
2017-01-16T14:36:35.325Z,1030.24
2017-01-16T14:37:57.457Z,1030.28
2017-01-16T14:39:19.094Z,1030.29
2017-01-16T14:40:41.635Z,1030.24
2017-01-16T14:42:04.210Z,1030.27
2017-01-16T14:43:27.087Z,1030.25
2017-01-16T14:44:49.597Z,1030.32
2017-01-16T14:46:12.245Z,1030.3
2017-01-16T14:47:34.278Z,1030.29
2017-01-16T14:48:55.784Z,1030.32
2017-01-16T14:50:18.224Z,1030.37
2017-01-16T14:51:40.712Z,1030.35
2017-01-16T14:53:01.957Z,1030.31
2017-01-16T14:54:24.020Z,1030.33
2017-01-16T14:55:46.981Z,1030.33
2017-01-16T14:57:09.059Z,1030.37
2017-01-16T14:58:31.190Z,1030.39
2017-01-16T14:59:53.238Z,1030.43
2017-01-16T15:01:15.697Z,1030.43
2017-01-16T15:02:37.452Z,1030.48
2017-01-16T15:04:00.353Z,1030.47
2017-01-16T15:05:22.431Z,1030.4
2017-01-16T15:06:45.015Z,1030.5
2017-01-16T15:08:07.854Z,1030.45
2017-01-16T15:09:30.306Z,1030.5
2017-01-16T15:10:52.868Z,1030.49
2017-01-16T15:12:15.832Z,1030.54
2017-01-16T15:13:38.309Z,1030.52
2017-01-16T15:15:00.771Z,1030.48
2017-01-16T15:16:22.814Z,1030.5
2017-01-16T15:17:45.019Z,1030.52
2017-01-16T15:19:07.878Z,1030.52
2017-01-16T15:20:30.329Z,1030.58
2017-01-16T15:21:52.774Z,1030.51
2017-01-16T15:23:15.269Z,1030.53
2017-01-16T15:24:37.336Z,1030.52
2017-01-16T15:25:59.375Z,1030.54
2017-01-16T15:27:21.070Z,1030.52
2017-01-16T15:28:43.259Z,1030.47
2017-01-16T15:30:05.768Z,1030.57
2017-01-16T15:31:27.455Z,1030.55
2017-01-16T15:32:49.907Z,1030.6
2017-01-16T15:34:12.764Z,1030.62
2017-01-16T15:35:34.901Z,1030.66
2017-01-16T15:36:56.940Z,1030.68
2017-01-16T15:38:18.985Z,1030.67
2017-01-16T15:39:41.816Z,1030.67
2017-01-16T15:41:04.261Z,1030.66
2017-01-16T15:42:26.742Z,1030.65
2017-01-16T15:43:49.715Z,1030.69
2017-01-16T15:45:12.280Z,1030.64
2017-01-16T15:46:34.726Z,1030.67
2017-01-16T15:47:57.195Z,1030.71
2017-01-16T15:49:19.260Z,1030.69
2017-01-16T15:50:41.309Z,1030.69
2017-01-16T15:52:03.789Z,1030.72
2017-01-16T15:53:26.261Z,1030.72
2017-01-16T15:54:48.442Z,1030.73
2017-01-16T15:56:10.657Z,1030.72
2017-01-16T15:57:33.251Z,1030.74
2017-01-16T15:58:55.713Z,1030.76
2017-01-16T16:00:18.149Z,1030.76
2017-01-16T16:01:40.304Z,1030.75
2017-01-16T16:03:02.390Z,1030.76
2017-01-16T16:04:24.059Z,1030.75
2017-01-16T16:05:46.539Z,1030.75
2017-01-16T16:07:08.722Z,1030.81
2017-01-16T16:08:31.299Z,1030.81
2017-01-16T16:09:52.969Z,1030.82
2017-01-16T16:11:16.089Z,1030.82
2017-01-16T16:12:38.600Z,1030.85
2017-01-16T16:13:59.860Z,1030.85
2017-01-16T16:15:22.310Z,1030.89
2017-01-16T16:16:45.156Z,1030.84
2017-01-16T16:18:08.102Z,1030.87
2017-01-16T16:19:30.244Z,1030.85
2017-01-16T16:20:52.302Z,1030.84
2017-01-16T16:22:13.948Z,1030.88
2017-01-16T16:23:35.591Z,1030.85
2017-01-16T16:24:58.042Z,1030.87
2017-01-16T16:26:20.450Z,1030.93
2017-01-16T16:27:43.329Z,1030.88
2017-01-16T16:29:05.396Z,1030.92
2017-01-16T16:30:28.218Z,1030.92
2017-01-16T16:31:50.721Z,1030.96
2017-01-16T16:33:12.768Z,1030.94
2017-01-16T16:34:35.210Z,1030.99
2017-01-16T16:35:57.814Z,1030.96
2017-01-16T16:37:20.269Z,1030.97
2017-01-16T16:38:42.323Z,1030.98
2017-01-16T16:40:04.374Z,1031